• Join FlightAware (Why Join?)
  • Login
  • US Flag 
12:44PM EDT


 

Airport Tracker/Info


-or-


 

Live Flight TrackerFlight Track Log ✈ PDT4314 ✈ 21-Oct-2013 ✈ KBGM - KPHL

Flight Track Log - Related Links

Times and Time Zones

All times are in EDT time to prevent confusion due to time zone crossing. See the PDT4314 flight status page for this flight to view local times or setup timezone preferences in your user account.

Time Position Orientation Groundspeed Altitude Reporting Facility
EDT Latitude Longitude Course Direction KTS MPH feet Rate Location/Type
06:35PM 42.0533 -75.9288 180° South  Level Estimated
06:36PM 42.0001 -75.9296 181° South  Level FlightAware Approximate
06:37PM 41.9469 -75.9304 181° South  Level FlightAware Approximate
06:38PM 41.8937 -75.9312 181° South  Level FlightAware Approximate
06:39PM 41.8422 -75.9131 154° Southeast  Level Estimated
06:40PM 41.7907 -75.8950 160° South  Level Estimated
06:41PM 41.7380 -75.8855 172° South  Level FlightAware Approximate
06:42PM 41.6865 -75.8672 159° South  Level Estimated
06:43PM 41.6352 -75.8486 165° South  Level FlightAware Approximate
06:44PM 41.5837 -75.8304 153° Southeast  Level Estimated
06:45PM 41.5323 -75.8122 161° South  Level Estimated
06:46PM 41.4823 -75.7879 160° South  Level FlightAware Approximate
06:47PM 41.4323 -75.7636 160° South  Level FlightAware Approximate
06:48PM 41.3823 -75.7393 160° South  Level FlightAware Approximate
06:49PM 41.3307 -75.7219 162° South  Level Estimated
06:50PM 41.2805 -75.6982 160° South  Level FlightAware Approximate
06:51PM 41.2304 -75.6746 161° South  Level FlightAware Approximate
06:52PM 41.1802 -75.6510 161° South  Level FlightAware Approximate
06:53PM 41.1300 -75.6275 161° South  Level FlightAware Approximate
06:54PM 41.0782 -75.6113 159° South  Level Estimated
06:55PM 41.0264 -75.5951 163° South  Level Estimated
06:56PM 40.9763 -75.5715 160° South  Level FlightAware Approximate
06:57PM 40.9261 -75.5479 160° South  Level FlightAware Approximate
06:58PM 40.8759 -75.5244 160° South  Level FlightAware Approximate
06:58PM 40.6833 -75.6333 182° South 245 282 6,200  Level Philadelphia TRACON
06:58PM 40.6333 -75.6333 180° South 242 278 5,700 -660 Descending Philadelphia TRACON
06:59PM 40.8258 -75.5009 160° South  Level FlightAware Approximate
06:59PM 40.5667 -75.6167 169° South 235 270 5,100  Level Philadelphia TRACON
07:00PM 40.7737 -75.4865 190° South  Level Estimated
07:00PM 40.5167 -75.6167 180° South 227 261 5,000  Level Philadelphia TRACON
07:01PM 40.7205 -75.4892 182° South  Level FlightAware Approximate
07:01PM 40.4500 -75.6000 169° South 218 251 5,000  Level Philadelphia TRACON
07:02PM 40.6673 -75.4918 182° South  Level FlightAware Approximate
07:02PM 40.4000 -75.5667 153° Southeast 236 272 5,000  Level Philadelphia TRACON
07:03PM 40.6141 -75.4944 182° South  Level FlightAware Approximate
07:03PM 40.4167 -75.4667 78° East 246 283 5,000  Level Philadelphia TRACON
07:04PM 40.4167 -75.3833 90° East 238 274 5,000 -180 Level Philadelphia TRACON
07:05PM 40.3667 -75.3167 135° Southeast 226 260 4,700 -480 Descending Philadelphia TRACON
07:06PM 40.3167 -75.3000 166° South 200 230 4,100 -360 Descending Philadelphia TRACON
07:07PM 40.2667 -75.2833 166° South 201 231 4,000 -60 Descending Philadelphia TRACON
07:08PM 40.2167 -75.2667 166° South 204 235 4,000  Level Philadelphia TRACON
07:09PM 40.1500 -75.2500 169° South 202 232 4,000  Level Philadelphia TRACON
07:10PM 40.1000 -75.2167 153° Southeast 196 226 4,000  Level Philadelphia TRACON
07:11PM 40.0500 -75.2000 166° South 193 222 4,000  Level Philadelphia TRACON
07:12PM 40.0000 -75.1833 166° South 192 221 4,000  Level Philadelphia TRACON
07:13PM 39.9500 -75.1500 153° Southeast 194 223 4,000  Level Philadelphia TRACON
07:14PM 39.9000 -75.1333 166° South 195 224 4,000  Level Philadelphia TRACON
07:15PM 39.8500 -75.1000 153° Southeast 196 226 4,000  Level Philadelphia TRACON
07:16PM 39.8000 -75.0833 166° South 196 226 4,000 -300 Level Philadelphia TRACON
07:17PM 39.7667 -75.1167 218° Southwest 175 201 3,400 -900 Descending Philadelphia TRACON
07:18PM 39.7667 -75.1667 270° West 175 201 2,300 -1,020 Descending Philadelphia TRACON
07:19PM 39.8167 -75.2000 333° Northwest 176 203 1,400 -900 Descending Philadelphia TRACON
07:20PM 39.8500 -75.2167 339° North 129 148 600 -840 Descending Philadelphia TRACON